createdAt,value
2019-02-21T00:07:47.511Z,69.27
2019-02-21T00:17:53.080Z,63.20
2019-02-21T00:27:58.565Z,57.60
2019-02-21T00:38:04.087Z,59.03
2019-02-21T00:48:09.605Z,62.90
2019-02-21T00:58:15.166Z,50.43
2019-02-21T01:08:20.687Z,46.03
2019-02-21T01:18:26.192Z,42.00
2019-02-21T01:28:31.772Z,42.37
2019-02-21T01:38:37.236Z,32.57
2019-02-21T01:48:42.752Z,30.37
2019-02-21T01:58:48.239Z,25.03
2019-02-21T02:08:53.771Z,25.50
2019-02-21T02:18:59.318Z,26.30
2019-02-21T02:29:04.775Z,24.57
2019-02-21T02:39:10.403Z,24.17
2019-02-21T02:49:15.921Z,26.13
2019-02-21T02:59:21.482Z,27.47
2019-02-21T03:09:27.072Z,25.33
2019-02-21T03:19:32.632Z,23.47
2019-02-21T03:29:38.100Z,23.50
2019-02-21T03:39:43.600Z,23.13
2019-02-21T03:49:49.200Z,22.53
2019-02-21T03:59:54.678Z,22.33
2019-02-21T04:10:00.498Z,26.63
2019-02-21T04:20:07.427Z,28.63
2019-02-21T04:30:13.979Z,26.30
2019-02-21T04:40:19.449Z,27.53
2019-02-21T04:50:25.183Z,24.77
2019-02-21T05:00:43.124Z,26.67
2019-02-21T05:10:48.672Z,29.00
2019-02-21T05:20:54.256Z,32.13
2019-02-21T05:31:01.389Z,35.43
2019-02-21T05:41:11.138Z,41.97
2019-02-21T05:51:18.226Z,57.20
2019-02-21T06:01:42.779Z,61.10
2019-02-21T06:12:07.971Z,48.53
2019-02-21T06:22:15.063Z,39.23
2019-02-21T06:32:20.546Z,38.90
2019-02-21T06:42:26.129Z,40.90
2019-02-21T06:52:31.595Z,38.43
2019-02-21T07:02:37.101Z,45.70
2019-02-21T07:12:42.613Z,50.77
2019-02-21T07:22:48.096Z,45.63
2019-02-21T07:32:53.597Z,47.73
2019-02-21T07:42:59.192Z,43.77
2019-02-21T07:53:04.816Z,37.00
2019-02-21T08:03:10.309Z,31.80
2019-02-21T08:13:15.912Z,30.93
2019-02-21T08:23:21.349Z,29.67
2019-02-21T08:33:28.399Z,28.67
2019-02-21T08:43:33.884Z,28.33
2019-02-21T08:53:39.334Z,26.40
2019-02-21T09:03:46.398Z,27.90
2019-02-21T09:13:51.859Z,28.17
2019-02-21T09:23:58.311Z,29.17
2019-02-21T09:34:03.814Z,27.37
2019-02-21T09:44:09.266Z,33.10
2019-02-21T09:54:14.745Z,23.80
2019-02-21T10:04:20.213Z,22.03
2019-02-21T10:14:25.712Z,26.00
2019-02-21T10:24:31.282Z,23.63
2019-02-21T10:34:43.088Z,23.83
2019-02-21T10:44:43.835Z,22.90
2019-02-21T10:54:49.316Z,21.03
2019-02-21T11:04:55.295Z,20.70
2019-02-21T11:15:01.007Z,16.37
2019-02-21T11:25:08.376Z,14.07
2019-02-21T11:35:14.841Z,15.57
2019-02-21T11:45:20.920Z,20.17
2019-02-21T11:55:26.888Z,18.60
2019-02-21T12:05:32.417Z,17.70
2019-02-21T12:15:38.978Z,15.97
2019-02-21T12:25:44.472Z,18.83
2019-02-21T12:35:50.084Z,18.80
2019-02-21T12:45:58.578Z,21.20
2019-02-21T12:56:04.071Z,19.33
2019-02-21T13:06:09.591Z,20.47
2019-02-21T13:16:15.328Z,20.50
2019-02-21T13:26:20.840Z,18.57
2019-02-21T13:36:26.389Z,27.63
2019-02-21T13:46:37.364Z,21.60
2019-02-21T13:56:38.972Z,20.93
2019-02-21T14:06:44.532Z,30.23
2019-02-21T14:16:50.078Z,34.27
2019-02-21T14:26:56.753Z,40.33
2019-02-21T14:37:02.353Z,31.30
2019-02-21T14:47:08.293Z,30.83
2019-02-21T14:57:15.364Z,37.53
2019-02-21T15:07:21.099Z,41.83
2019-02-21T15:17:28.654Z,36.23
2019-02-21T15:27:34.215Z,34.27
2019-02-21T15:37:39.905Z,52.37
2019-02-21T15:47:46.726Z,50.57
2019-02-21T15:58:03.377Z,61.73
2019-02-21T16:07:59.613Z,58.20
2019-02-21T16:18:05.473Z,57.97
2019-02-21T16:28:11.377Z,64.40
2019-02-21T16:38:17.272Z,71.67
2019-02-21T16:48:23.049Z,70.63
2019-02-21T16:58:28.524Z,69.07
2019-02-21T17:08:34.439Z,65.90
2019-02-21T17:18:40.369Z,70.40
2019-02-21T17:28:46.026Z,78.10
2019-02-21T17:38:51.640Z,56.43
2019-02-21T17:48:57.612Z,51.93
2019-02-21T17:59:03.617Z,45.63
2019-02-21T18:09:09.676Z,37.53
2019-02-21T18:19:16.413Z,49.53
2019-02-21T18:29:22.475Z,55.47
2019-02-21T18:39:28.514Z,45.37
2019-02-21T18:49:34.633Z,56.20
2019-02-21T18:59:40.674Z,59.73
2019-02-21T19:09:46.967Z,53.70
2019-02-21T19:19:52.982Z,51.60
2019-02-21T19:29:58.918Z,56.93
2019-02-21T19:40:07.470Z,59.50
2019-02-21T19:50:13.692Z,61.17
2019-02-21T20:00:30.010Z,54.13
2019-02-21T20:10:36.098Z,44.57
2019-02-21T20:20:42.352Z,50.77
2019-02-21T20:30:48.385Z,45.70
2019-02-21T20:40:54.358Z,45.13
2019-02-21T20:51:01.742Z,45.03
2019-02-21T21:01:08.056Z,45.77
2019-02-21T21:11:13.951Z,46.17
2019-02-21T21:21:20.189Z,52.60
2019-02-21T21:31:26.002Z,54.37
2019-02-21T21:41:31.721Z,52.53
2019-02-21T21:51:37.699Z,54.63
2019-02-21T22:01:43.280Z,53.47
2019-02-21T22:11:48.873Z,54.53
2019-02-21T22:21:54.383Z,53.33
2019-02-21T22:31:59.911Z,54.03
2019-02-21T22:42:05.568Z,52.57
2019-02-21T22:52:11.097Z,54.23
2019-02-21T23:02:16.802Z,50.73
2019-02-21T23:12:22.373Z,56.13
2019-02-21T23:22:27.880Z,55.87
2019-02-21T23:32:34.462Z,54.80
2019-02-21T23:42:40.452Z,57.13
2019-02-21T23:52:46.125Z,60.00
